Česky Dansk Deutsch English Español Suomi Français Magyar Italiano Nederlands norsk Polski Português svenska Türkçe

 

Het Weer

Kaxul - The South of Moldova (Moldavië)

07:15, 10 oktober 2014 (GMT)

NWNNE
WE
SWSSE
Home            
Kaxul - The South of Moldova Tulcea Bacau Chisinau International Airport Kisinev Iasi Kogalniceanu Odesa Bucuresti Otopeni Bucuresti / Imh Baltsi-Leadoveni - The North of Moldova Suceava / Salcea Rousse Varna Tirgu Mures Mykolaiv Sibiu Chernovsty Gorna Orechovista Cluj-Napoca Burgas Craiova Baia Mare

Om een weerknop op uw website of weblog te plaatsen, copieer onderstaande code en plak die in uw pagina. In het eerste vakje staat HTML-code, in het tweede vakje UBB-code.


Add to Google

Details

Wind speed:1 bf, 1 kn, 0.5 m/s, 1.2 miles/h, 1.9 km/h
Wind direction:ESE, 120°
Visibility: 8000 m, 8.0 km, 26247 ft, 5.0 miles
Temperature:13°C, 55°F
Dew-point:11°C, 52°F
Atmospheric pressure:1025 hPa, 768.8 mmHg, 30.27 inHg, 1.012 atm
Relative humidity:87.6 %
METAR:LUCH 100715Z 12001KT 8000 NSC 13/11 Q1025

Snelkoppelingen

Actuele weersinformatie van de hele wereld. Voeg locaties toe met het plus (+) symbool. Deze snelkoppelingen kunnen worden toegevoegd aan Google.

Lid van de Technetium groep

website free tracking
StatCounter NetStat W3C Validator

01-10-2022 11:19:53
astro.technetium.be money.technetium.be phote.technetium.be tafeltennistafel.technetium.be www.ligfiets.net